createdAt,value
2017-07-24T00:00:03.663Z,16.47
2017-07-24T00:00:17.020Z,16.45
2017-07-24T00:00:30.428Z,16.49
2017-07-24T00:00:43.799Z,16.52
2017-07-24T00:00:57.252Z,16.44
2017-07-24T00:01:10.709Z,16.44
2017-07-24T00:01:23.723Z,16.49
2017-07-24T00:01:37.101Z,16.45
2017-07-24T00:01:50.486Z,16.44
2017-07-24T00:02:03.853Z,16.48
2017-07-24T00:02:17.288Z,16.47
2017-07-24T00:02:30.229Z,16.47
2017-07-24T00:02:43.089Z,16.44
2017-07-24T00:02:56.581Z,16.4
2017-07-24T00:03:10.059Z,16.36
2017-07-24T00:03:22.413Z,16.32
2017-07-24T00:03:35.282Z,16.3
2017-07-24T00:03:48.712Z,16.36
2017-07-24T00:04:02.122Z,16.33
2017-07-24T00:04:15.068Z,16.32
2017-07-24T00:04:28.578Z,16.42
2017-07-24T00:04:42.036Z,16.36
2017-07-24T00:04:54.892Z,16.27
2017-07-24T00:05:08.444Z,16.36
2017-07-24T00:05:21.888Z,16.36
2017-07-24T00:05:35.404Z,16.34
2017-07-24T00:05:48.467Z,16.36
2017-07-24T00:06:00.831Z,16.25
2017-07-24T00:06:14.229Z,16.29
2017-07-24T00:06:27.700Z,16.32
2017-07-24T00:06:40.090Z,16.22
2017-07-24T00:06:52.506Z,16.16
2017-07-24T00:07:05.425Z,16.21
2017-07-24T00:07:18.851Z,16.21
2017-07-24T00:07:32.312Z,16.18
2017-07-24T00:07:45.766Z,16.13
2017-07-24T00:07:58.689Z,16.22
2017-07-24T00:08:11.601Z,16.17
2017-07-24T00:08:24.976Z,16.18
2017-07-24T00:08:38.466Z,16.21
2017-07-24T00:08:51.379Z,16.22
2017-07-24T00:09:04.349Z,16.25
2017-07-24T00:09:17.831Z,16.16
2017-07-24T00:09:30.757Z,16.27
2017-07-24T00:09:44.141Z,16.29
2017-07-24T00:09:56.543Z,16.27
2017-07-24T00:10:09.993Z,16.42
2017-07-24T00:10:23.449Z,16.32
2017-07-24T00:10:36.354Z,16.36
2017-07-24T00:10:49.813Z,16.33
2017-07-24T00:11:03.258Z,16.29
2017-07-24T00:11:16.690Z,16.34
2017-07-24T00:11:30.168Z,16.36
2017-07-24T00:11:43.653Z,16.29
2017-07-24T00:11:57.110Z,16.34
2017-07-24T00:12:10.540Z,16.32
2017-07-24T00:12:24.003Z,16.29
2017-07-24T00:12:37.575Z,16.29
2017-07-24T00:12:50.970Z,16.36
2017-07-24T00:13:03.301Z,16.34
2017-07-24T00:13:16.186Z,16.32
2017-07-24T00:13:29.664Z,16.32
2017-07-24T00:13:43.083Z,16.37
2017-07-24T00:13:55.984Z,16.32
2017-07-24T00:14:09.390Z,16.32
2017-07-24T00:14:22.235Z,16.29
2017-07-24T00:14:35.712Z,16.16
2017-07-24T00:14:48.650Z,16.18
2017-07-24T00:15:01.534Z,16.14
2017-07-24T00:15:14.976Z,16.22
2017-07-24T00:15:28.420Z,16.14
2017-07-24T00:15:41.870Z,16.16
2017-07-24T00:15:54.773Z,16.21
2017-07-24T00:16:08.259Z,16.16
2017-07-24T00:16:21.211Z,16.16
2017-07-24T00:16:34.684Z,16.11
2017-07-24T00:16:48.163Z,16.21
2017-07-24T00:17:01.078Z,16.17
2017-07-24T00:17:14.495Z,16.18
2017-07-24T00:17:27.923Z,16.18
2017-07-24T00:17:41.476Z,16.13
2017-07-24T00:17:54.438Z,16.08
2017-07-24T00:18:07.945Z,16.07
2017-07-24T00:18:20.372Z,16.13
2017-07-24T00:18:33.764Z,16.07
2017-07-24T00:18:46.639Z,16.1
2017-07-24T00:18:59.577Z,16.07
2017-07-24T00:19:13.019Z,16.11
2017-07-24T00:19:26.408Z,16.14
2017-07-24T00:19:39.341Z,16.13
2017-07-24T00:19:52.797Z,16.14
2017-07-24T00:20:06.201Z,16.11
2017-07-24T00:20:19.106Z,16.21
2017-07-24T00:20:32.586Z,16.22
2017-07-24T00:20:45.501Z,16.18
2017-07-24T00:20:58.435Z,16.25
2017-07-24T00:21:11.367Z,16.14
2017-07-24T00:21:24.804Z,16.22
2017-07-24T00:21:38.253Z,16.17
2017-07-24T00:21:51.760Z,16.17
2017-07-24T00:22:05.187Z,16.21
2017-07-24T00:22:18.082Z,16.17
2017-07-24T00:22:31.442Z,16.18
2017-07-24T00:22:44.842Z,16.21
2017-07-24T00:22:57.740Z,16.21
2017-07-24T00:23:10.104Z,16.17
2017-07-24T00:23:22.965Z,16.1
2017-07-24T00:23:35.846Z,16.16
2017-07-24T00:23:49.290Z,16.17
2017-07-24T00:24:02.690Z,16.17
2017-07-24T00:24:15.583Z,16.14
2017-07-24T00:24:28.475Z,16.13
2017-07-24T00:24:41.926Z,16.13
2017-07-24T00:24:55.322Z,16.13
2017-07-24T00:25:08.224Z,16.1
2017-07-24T00:25:21.696Z,16.11
2017-07-24T00:25:34.584Z,16.13
2017-07-24T00:25:48.256Z,16
2017-07-24T00:26:01.663Z,16
2017-07-24T00:26:15.097Z,16.08
2017-07-24T00:26:28.573Z,16.06
2017-07-24T00:26:42.035Z,15.99
2017-07-24T00:26:55.418Z,16.02
2017-07-24T00:27:08.822Z,16.02
2017-07-24T00:27:22.195Z,16.07
2017-07-24T00:27:35.040Z,16
2017-07-24T00:27:48.534Z,15.98
2017-07-24T00:28:01.961Z,16
2017-07-24T00:28:14.902Z,16
2017-07-24T00:28:27.738Z,15.98
2017-07-24T00:28:41.255Z,15.96
2017-07-24T00:28:54.679Z,15.91
2017-07-24T00:29:07.657Z,16
2017-07-24T00:29:21.119Z,15.88
2017-07-24T00:29:34.552Z,15.84
2017-07-24T00:29:47.970Z,15.93
2017-07-24T00:30:01.359Z,15.91
2017-07-24T00:30:14.253Z,15.92
2017-07-24T00:30:27.636Z,15.92
2017-07-24T00:30:41.057Z,15.93
2017-07-24T00:30:54.696Z,15.84
2017-07-24T00:31:07.554Z,15.84
2017-07-24T00:31:20.977Z,15.83
2017-07-24T00:31:34.343Z,15.84
2017-07-24T00:31:47.730Z,15.78
2017-07-24T00:32:01.133Z,15.86
2017-07-24T00:32:14.564Z,15.86
2017-07-24T00:32:27.988Z,15.83
2017-07-24T00:32:40.918Z,15.84
2017-07-24T00:32:54.357Z,15.91
2017-07-24T00:33:07.811Z,15.88
2017-07-24T00:33:20.685Z,15.88
2017-07-24T00:33:34.094Z,15.93
2017-07-24T00:33:47.560Z,15.96
2017-07-24T00:34:00.470Z,15.88
2017-07-24T00:34:13.931Z,15.92
2017-07-24T00:34:27.321Z,15.99
2017-07-24T00:34:40.722Z,15.91
2017-07-24T00:34:54.186Z,15.96
2017-07-24T00:35:06.075Z,15.95
2017-07-24T00:35:19.464Z,15.95
2017-07-24T00:35:32.431Z,15.89
2017-07-24T00:35:45.885Z,15.91
2017-07-24T00:35:59.024Z,15.98
2017-07-24T00:36:12.489Z,15.91
2017-07-24T00:36:25.416Z,15.89
2017-07-24T00:36:38.842Z,15.93
2017-07-24T00:36:52.282Z,15.88
2017-07-24T00:37:05.736Z,15.93
2017-07-24T00:37:18.116Z,15.93
2017-07-24T00:37:30.534Z,15.88
2017-07-24T00:37:43.538Z,15.84
2017-07-24T00:37:57.057Z,15.88
2017-07-24T00:38:09.919Z,15.91
2017-07-24T00:38:23.378Z,15.91
2017-07-24T00:38:36.864Z,15.88
2017-07-24T00:38:50.279Z,15.84
2017-07-24T00:39:03.240Z,15.81
2017-07-24T00:39:16.661Z,15.88
2017-07-24T00:39:29.543Z,15.81
2017-07-24T00:39:42.962Z,15.84
2017-07-24T00:39:55.857Z,15.81
2017-07-24T00:40:09.295Z,15.78
2017-07-24T00:40:22.161Z,15.83
2017-07-24T00:40:35.572Z,15.81
2017-07-24T00:40:48.967Z,15.77
2017-07-24T00:41:02.345Z,15.83
2017-07-24T00:41:15.277Z,15.83
2017-07-24T00:41:28.149Z,15.83
2017-07-24T00:41:41.581Z,15.81
2017-07-24T00:41:54.504Z,15.8
2017-07-24T00:42:07.446Z,15.77
2017-07-24T00:42:20.930Z,15.81
2017-07-24T00:42:34.382Z,15.83
2017-07-24T00:42:47.805Z,15.81
2017-07-24T00:43:01.235Z,15.81
2017-07-24T00:43:14.133Z,15.84
2017-07-24T00:43:27.557Z,15.84
2017-07-24T00:43:40.536Z,15.83
2017-07-24T00:43:53.989Z,15.8
2017-07-24T00:44:06.885Z,15.84
2017-07-24T00:44:20.309Z,15.83
2017-07-24T00:44:33.753Z,15.84
2017-07-24T00:44:47.104Z,15.86
2017-07-24T00:45:00.508Z,15.84
2017-07-24T00:45:13.948Z,15.83
2017-07-24T00:45:26.862Z,15.78
2017-07-24T00:45:40.354Z,15.81
2017-07-24T00:45:53.867Z,15.8
2017-07-24T00:46:07.282Z,15.7
2017-07-24T00:46:20.755Z,15.7
2017-07-24T00:46:33.665Z,15.84
2017-07-24T00:46:46.605Z,15.81
2017-07-24T00:46:59.972Z,15.68
2017-07-24T00:47:12.896Z,15.83
2017-07-24T00:47:25.762Z,15.62
2017-07-24T00:47:38.664Z,15.77
2017-07-24T00:47:52.063Z,15.67
2017-07-24T00:48:05.531Z,15.75
2017-07-24T00:48:18.927Z,15.78
2017-07-24T00:48:32.409Z,15.71
2017-07-24T00:48:45.881Z,15.71
2017-07-24T00:48:59.311Z,15.75
2017-07-24T00:49:12.220Z,15.71
2017-07-24T00:49:25.179Z,15.7
2017-07-24T00:49:38.105Z,15.77
2017-07-24T00:49:51.531Z,15.78
2017-07-24T00:50:05.019Z,15.74
2017-07-24T00:50:17.922Z,15.6
2017-07-24T00:50:31.304Z,15.68
2017-07-24T00:50:44.226Z,15.67
2017-07-24T00:50:58.395Z,15.7
2017-07-24T00:51:11.892Z,15.71
2017-07-24T00:51:24.784Z,15.73
2017-07-24T00:51:38.262Z,15.67
2017-07-24T00:51:51.687Z,15.67
2017-07-24T00:52:05.094Z,15.74
2017-07-24T00:52:18.481Z,15.78
2017-07-24T00:52:31.918Z,15.77
2017-07-24T00:52:45.364Z,15.78
2017-07-24T00:52:58.796Z,15.78
2017-07-24T00:53:12.175Z,15.81
2017-07-24T00:53:25.060Z,15.77
2017-07-24T00:53:37.457Z,15.8
2017-07-24T00:53:50.859Z,15.73
2017-07-24T00:54:04.358Z,15.8
2017-07-24T00:54:17.198Z,15.75
2017-07-24T00:54:30.670Z,15.88
2017-07-24T00:54:44.114Z,15.77
2017-07-24T00:54:57.521Z,15.68
2017-07-24T00:55:10.945Z,15.78
2017-07-24T00:55:24.373Z,15.73
2017-07-24T00:55:37.738Z,15.67
2017-07-24T00:55:50.636Z,15.74
2017-07-24T00:56:04.107Z,15.68
2017-07-24T00:56:17.513Z,15.75
2017-07-24T00:56:30.403Z,15.68
2017-07-24T00:56:43.849Z,15.67
2017-07-24T00:56:56.789Z,15.59
2017-07-24T00:57:10.213Z,15.59
2017-07-24T00:57:23.640Z,15.62
2017-07-24T00:57:36.557Z,15.63
2017-07-24T00:57:50.025Z,15.59
2017-07-24T00:58:03.395Z,15.59
2017-07-24T00:58:16.826Z,15.53
2017-07-24T00:58:30.251Z,15.56
2017-07-24T00:58:43.665Z,15.47
2017-07-24T00:58:57.137Z,15.52
2017-07-24T00:59:10.103Z,15.49
2017-07-24T00:59:22.943Z,15.47
2017-07-24T00:59:35.881Z,15.49
2017-07-24T00:59:49.288Z,15.45
2017-07-24T01:00:02.147Z,15.44
2017-07-24T01:00:15.052Z,15.43
2017-07-24T01:00:28.447Z,15.41
2017-07-24T01:00:41.895Z,15.37
2017-07-24T01:00:55.254Z,15.38
2017-07-24T01:01:08.991Z,15.34
2017-07-24T01:01:22.472Z,15.37
2017-07-24T01:01:35.931Z,15.35
2017-07-24T01:01:49.362Z,15.34
2017-07-24T01:02:02.228Z,15.35
2017-07-24T01:02:15.120Z,15.35
2017-07-24T01:02:28.605Z,15.27
2017-07-24T01:02:41.467Z,15.35
2017-07-24T01:02:54.860Z,15.34
2017-07-24T01:03:08.240Z,15.41
2017-07-24T01:03:21.082Z,15.33
2017-07-24T01:03:33.956Z,15.41
2017-07-24T01:03:45.830Z,15.45
2017-07-24T01:03:59.226Z,15.4
2017-07-24T01:04:12.143Z,15.45
2017-07-24T01:04:25.675Z,15.51
2017-07-24T01:04:38.570Z,15.44
2017-07-24T01:04:51.539Z,15.43
2017-07-24T01:05:04.518Z,15.47
2017-07-24T01:05:17.942Z,15.56
2017-07-24T01:05:30.855Z,15.56
2017-07-24T01:05:44.306Z,15.59
2017-07-24T01:05:57.693Z,15.59
2017-07-24T01:06:11.232Z,15.58
2017-07-24T01:06:24.633Z,15.6
2017-07-24T01:06:37.518Z,15.62
2017-07-24T01:06:50.497Z,15.6
2017-07-24T01:07:03.955Z,15.53
2017-07-24T01:07:16.863Z,15.6
2017-07-24T01:07:29.783Z,15.56
2017-07-24T01:07:43.313Z,15.58
2017-07-24T01:07:56.204Z,15.56
2017-07-24T01:08:09.664Z,15.62
2017-07-24T01:08:22.043Z,15.62
2017-07-24T01:08:35.529Z,15.63
2017-07-24T01:08:48.950Z,15.62
2017-07-24T01:09:02.382Z,15.6
2017-07-24T01:09:15.759Z,15.6
2017-07-24T01:09:29.205Z,15.65
2017-07-24T01:09:42.591Z,15.63
2017-07-24T01:09:55.944Z,15.63
2017-07-24T01:10:08.897Z,15.56
2017-07-24T01:10:22.304Z,15.56
2017-07-24T01:10:35.726Z,15.62
2017-07-24T01:10:48.660Z,15.62
2017-07-24T01:11:02.080Z,15.65
2017-07-24T01:11:15.532Z,15.63
2017-07-24T01:11:29.065Z,15.63
2017-07-24T01:11:42.532Z,15.59
2017-07-24T01:11:55.416Z,15.62
2017-07-24T01:12:08.793Z,15.59
2017-07-24T01:12:22.258Z,15.6
2017-07-24T01:12:35.709Z,15.62
2017-07-24T01:12:48.614Z,15.6
2017-07-24T01:13:01.959Z,15.6
2017-07-24T01:13:15.381Z,15.62
2017-07-24T01:13:28.801Z,15.59
2017-07-24T01:13:42.224Z,15.59
2017-07-24T01:13:55.676Z,15.6
2017-07-24T01:14:09.178Z,15.62
2017-07-24T01:14:22.603Z,15.62
2017-07-24T01:14:35.456Z,15.58
2017-07-24T01:14:48.912Z,15.59
2017-07-24T01:15:02.380Z,15.58
2017-07-24T01:15:15.779Z,15.65
2017-07-24T01:15:29.205Z,15.6
2017-07-24T01:15:41.609Z,15.59
2017-07-24T01:15:54.516Z,15.63
2017-07-24T01:16:07.403Z,15.58
2017-07-24T01:16:20.803Z,15.55
2017-07-24T01:16:33.229Z,15.59
2017-07-24T01:16:46.647Z,15.53
2017-07-24T01:17:00.044Z,15.47
2017-07-24T01:17:13.440Z,15.53
2017-07-24T01:17:26.439Z,15.51
2017-07-24T01:17:39.329Z,15.41
2017-07-24T01:17:52.861Z,15.47
2017-07-24T01:18:06.261Z,15.4
2017-07-24T01:18:19.131Z,15.44
2017-07-24T01:18:32.040Z,15.44
2017-07-24T01:18:45.526Z,15.47
2017-07-24T01:18:58.919Z,15.44
2017-07-24T01:19:12.304Z,15.4
2017-07-24T01:19:25.717Z,15.33
2017-07-24T01:19:39.155Z,15.34
2017-07-24T01:19:52.039Z,15.31
2017-07-24T01:20:05.488Z,15.34
2017-07-24T01:20:18.936Z,15.37
2017-07-24T01:20:31.896Z,15.37
2017-07-24T01:20:45.374Z,15.3
2017-07-24T01:20:58.311Z,15.26
2017-07-24T01:21:12.474Z,15.31
2017-07-24T01:21:25.901Z,15.23
2017-07-24T01:21:39.260Z,15.3
2017-07-24T01:21:52.702Z,15.18
2017-07-24T01:22:06.095Z,15.15
2017-07-24T01:22:19.003Z,15.16
2017-07-24T01:22:32.408Z,15.16
2017-07-24T01:22:45.855Z,15.15
2017-07-24T01:22:58.282Z,15.15
2017-07-24T01:23:11.748Z,15.2
2017-07-24T01:23:25.185Z,15.19
2017-07-24T01:23:38.692Z,15.16
2017-07-24T01:23:52.148Z,15.2
2017-07-24T01:24:05.591Z,15.16
2017-07-24T01:24:19.034Z,15.19
2017-07-24T01:24:31.994Z,15.16
2017-07-24T01:24:45.460Z,15.19
2017-07-24T01:24:58.840Z,15.19
2017-07-24T01:25:12.216Z,15.26
2017-07-24T01:25:25.665Z,15.27
2017-07-24T01:25:39.042Z,15.26
2017-07-24T01:25:52.444Z,15.27
2017-07-24T01:26:05.856Z,15.3
2017-07-24T01:26:18.966Z,15.3
2017-07-24T01:26:32.357Z,15.31
2017-07-24T01:26:45.764Z,15.25
2017-07-24T01:26:59.145Z,15.37
2017-07-24T01:27:12.138Z,15.37
2017-07-24T01:27:25.599Z,15.38
2017-07-24T01:27:39.023Z,15.37
2017-07-24T01:27:51.888Z,15.38
2017-07-24T01:28:04.787Z,15.38
2017-07-24T01:28:18.267Z,15.27
2017-07-24T01:28:31.739Z,15.31
2017-07-24T01:28:45.179Z,15.34
2017-07-24T01:28:58.585Z,15.33
2017-07-24T01:29:11.503Z,15.35
2017-07-24T01:29:24.462Z,15.34
2017-07-24T01:29:37.903Z,15.3
2017-07-24T01:29:50.217Z,15.25
2017-07-24T01:30:02.607Z,15.22
2017-07-24T01:30:15.985Z,15.33
2017-07-24T01:30:29.417Z,15.27
2017-07-24T01:30:42.824Z,15.22
2017-07-24T01:30:55.214Z,15.3
2017-07-24T01:31:08.166Z,15.27
2017-07-24T01:31:21.822Z,15.25
2017-07-24T01:31:35.305Z,15.31
2017-07-24T01:31:48.745Z,15.23
2017-07-24T01:32:02.139Z,15.16
2017-07-24T01:32:15.568Z,15.15
2017-07-24T01:32:28.952Z,15.16
2017-07-24T01:32:42.396Z,15.18
2017-07-24T01:32:55.766Z,15.18
2017-07-24T01:33:08.713Z,15.16
2017-07-24T01:33:22.094Z,15.18
2017-07-24T01:33:35.489Z,15.07
2017-07-24T01:33:48.348Z,15.15
2017-07-24T01:34:01.307Z,15.1
2017-07-24T01:34:14.190Z,15.05
2017-07-24T01:34:27.608Z,15.05
2017-07-24T01:34:41.030Z,15.1
2017-07-24T01:34:53.885Z,15.1
2017-07-24T01:35:06.873Z,15.12
2017-07-24T01:35:19.810Z,15.07
2017-07-24T01:35:33.214Z,15.12
2017-07-24T01:35:46.616Z,15.07
2017-07-24T01:36:00.095Z,15.1
2017-07-24T01:36:14.198Z,15.04
2017-07-24T01:36:27.669Z,15.05
2017-07-24T01:36:40.547Z,15.01
2017-07-24T01:36:54.014Z,15
2017-07-24T01:37:07.425Z,14.97
2017-07-24T01:37:20.831Z,15.04
2017-07-24T01:37:33.822Z,14.95
2017-07-24T01:37:47.221Z,14.97
2017-07-24T01:38:00.121Z,14.94
2017-07-24T01:38:13.078Z,15.02
2017-07-24T01:38:26.545Z,15
2017-07-24T01:38:38.900Z,15.02
2017-07-24T01:38:52.327Z,15
2017-07-24T01:39:05.252Z,15
2017-07-24T01:39:18.223Z,14.98
2017-07-24T01:39:31.655Z,14.95
2017-07-24T01:39:45.123Z,15.01
2017-07-24T01:39:58.011Z,15.05
2017-07-24T01:40:11.424Z,15.04
2017-07-24T01:40:24.308Z,15
2017-07-24T01:40:37.736Z,15.02
2017-07-24T01:40:51.123Z,14.97
2017-07-24T01:41:04.529Z,15.1
2017-07-24T01:41:17.375Z,15
2017-07-24T01:41:30.271Z,15.07
2017-07-24T01:41:43.677Z,15
2017-07-24T01:41:57.177Z,15.04
2017-07-24T01:42:10.074Z,15.02
2017-07-24T01:42:23.524Z,15.07
2017-07-24T01:42:36.419Z,15.01
2017-07-24T01:42:49.792Z,15.02
2017-07-24T01:43:03.211Z,14.97
2017-07-24T01:43:16.650Z,15.01
2017-07-24T01:43:30.133Z,15.02
2017-07-24T01:43:43.638Z,15.05
2017-07-24T01:43:57.102Z,15
2017-07-24T01:44:10.573Z,15
2017-07-24T01:44:24.056Z,14.97
2017-07-24T01:44:37.492Z,15
2017-07-24T01:44:50.430Z,14.97
2017-07-24T01:45:03.876Z,15.01
2017-07-24T01:45:16.750Z,15
2017-07-24T01:45:29.641Z,14.95
2017-07-24T01:45:43.102Z,14.98
2017-07-24T01:45:55.953Z,14.87
2017-07-24T01:46:09.373Z,15
2017-07-24T01:46:22.824Z,14.93
2017-07-24T01:46:35.750Z,14.97
2017-07-24T01:46:49.161Z,14.95
2017-07-24T01:47:02.604Z,14.83
2017-07-24T01:47:15.522Z,14.9
2017-07-24T01:47:28.420Z,14.95
2017-07-24T01:47:41.360Z,14.82
2017-07-24T01:47:54.276Z,14.89
2017-07-24T01:48:07.105Z,14.83
2017-07-24T01:48:20.513Z,14.82
2017-07-24T01:48:33.921Z,14.94
2017-07-24T01:48:47.313Z,14.82
2017-07-24T01:49:00.273Z,14.8
2017-07-24T01:49:13.690Z,14.9
2017-07-24T01:49:26.568Z,14.85
2017-07-24T01:49:39.993Z,14.82
2017-07-24T01:49:53.412Z,14.82
2017-07-24T01:50:06.856Z,14.83
2017-07-24T01:50:19.224Z,14.83
2017-07-24T01:50:32.714Z,14.85
2017-07-24T01:50:46.140Z,14.82
2017-07-24T01:50:59.595Z,14.83
2017-07-24T01:51:13.044Z,14.74
2017-07-24T01:51:26.179Z,14.82
2017-07-24T01:51:39.627Z,14.82
2017-07-24T01:51:53.124Z,14.8
2017-07-24T01:52:06.009Z,14.9
2017-07-24T01:52:18.922Z,14.85
2017-07-24T01:52:32.367Z,14.83
2017-07-24T01:52:45.753Z,14.82
2017-07-24T01:52:59.126Z,14.83
2017-07-24T01:53:12.500Z,14.85
2017-07-24T01:53:25.900Z,14.82
2017-07-24T01:53:39.352Z,14.8
2017-07-24T01:53:52.861Z,14.85
2017-07-24T01:54:06.313Z,14.82
2017-07-24T01:54:19.749Z,14.83
2017-07-24T01:54:32.682Z,14.85
2017-07-24T01:54:46.160Z,14.77
2017-07-24T01:54:59.656Z,14.82
2017-07-24T01:55:12.544Z,14.8
2017-07-24T01:55:25.457Z,14.85
2017-07-24T01:55:38.865Z,14.8
2017-07-24T01:55:52.385Z,14.79
2017-07-24T01:56:05.271Z,14.66
2017-07-24T01:56:18.664Z,14.66
2017-07-24T01:56:32.076Z,14.82
2017-07-24T01:56:45.547Z,14.7
2017-07-24T01:56:58.444Z,14.69
2017-07-24T01:57:11.911Z,14.74
2017-07-24T01:57:25.387Z,14.77
2017-07-24T01:57:38.304Z,14.71
2017-07-24T01:57:51.756Z,14.71
2017-07-24T01:58:05.207Z,14.75
2017-07-24T01:58:18.162Z,14.63
2017-07-24T01:58:31.055Z,14.67
2017-07-24T01:58:44.517Z,14.57
2017-07-24T01:58:57.993Z,14.64
2017-07-24T01:59:11.432Z,14.6
2017-07-24T01:59:24.902Z,14.6
2017-07-24T01:59:37.760Z,14.64
2017-07-24T01:59:51.286Z,14.57
2017-07-24T02:00:04.216Z,14.49
2017-07-24T02:00:17.614Z,14.56
2017-07-24T02:00:30.551Z,14.59
2017-07-24T02:00:43.454Z,14.59
2017-07-24T02:00:55.800Z,14.56
2017-07-24T02:01:09.209Z,14.49
2017-07-24T02:01:22.664Z,14.49
2017-07-24T02:01:35.571Z,14.49
2017-07-24T02:01:48.970Z,14.42
2017-07-24T02:02:02.363Z,14.46
2017-07-24T02:02:15.813Z,14.44
2017-07-24T02:02:29.284Z,14.45
2017-07-24T02:02:42.661Z,14.46
2017-07-24T02:02:56.112Z,14.48
2017-07-24T02:03:09.573Z,14.49
2017-07-24T02:03:23.010Z,14.45
2017-07-24T02:03:36.399Z,14.52
2017-07-24T02:03:49.895Z,14.38
2017-07-24T02:04:02.312Z,14.42
2017-07-24T02:04:15.680Z,14.44
2017-07-24T02:04:29.059Z,14.36
2017-07-24T02:04:41.459Z,14.38
2017-07-24T02:04:54.402Z,14.39
2017-07-24T02:05:07.872Z,14.38
2017-07-24T02:05:21.305Z,14.36
2017-07-24T02:05:34.728Z,14.3
2017-07-24T02:05:48.069Z,14.3
2017-07-24T02:06:01.502Z,14.33
2017-07-24T02:06:14.970Z,14.3
2017-07-24T02:06:29.135Z,14.31
2017-07-24T02:06:42.624Z,14.33
2017-07-24T02:06:55.557Z,14.33
2017-07-24T02:07:07.951Z,14.24
2017-07-24T02:07:21.355Z,14.23
2017-07-24T02:07:34.807Z,14.28
2017-07-24T02:07:48.207Z,14.24
2017-07-24T02:08:01.623Z,14.23
2017-07-24T02:08:14.514Z,14.23
2017-07-24T02:08:27.903Z,14.2
2017-07-24T02:08:41.295Z,14.21
2017-07-24T02:08:54.817Z,14.13
2017-07-24T02:09:08.267Z,14.12
2017-07-24T02:09:21.747Z,14.19
2017-07-24T02:09:35.204Z,14.15
2017-07-24T02:09:48.653Z,14.11
2017-07-24T02:10:02.101Z,14.13
2017-07-24T02:10:15.578Z,14.16
2017-07-24T02:10:28.993Z,14.13
2017-07-24T02:10:41.893Z,14.15
2017-07-24T02:10:54.780Z,14.12
2017-07-24T02:11:08.286Z,14.13
2017-07-24T02:11:21.211Z,14.12
2017-07-24T02:11:34.570Z,14.15
2017-07-24T02:11:48.054Z,14.12
2017-07-24T02:12:01.037Z,14.13
2017-07-24T02:12:14.506Z,14.11
2017-07-24T02:12:27.394Z,14.11
2017-07-24T02:12:40.857Z,14.15
2017-07-24T02:12:53.740Z,14.16
2017-07-24T02:13:07.189Z,14.15
2017-07-24T02:13:20.121Z,14.23
2017-07-24T02:13:33.513Z,14.27
2017-07-24T02:13:46.444Z,14.21
2017-07-24T02:13:59.840Z,14.23
2017-07-24T02:14:12.770Z,14.28
2017-07-24T02:14:25.677Z,14.28
2017-07-24T02:14:38.549Z,14.31
2017-07-24T02:14:51.898Z,14.26
2017-07-24T02:15:05.322Z,14.26
2017-07-24T02:15:18.715Z,14.28
2017-07-24T02:15:32.136Z,14.38
2017-07-24T02:15:45.584Z,14.27
2017-07-24T02:15:59.060Z,14.3
2017-07-24T02:16:12.475Z,14.34
2017-07-24T02:16:25.841Z,14.33
2017-07-24T02:16:39.320Z,14.31
2017-07-24T02:16:52.235Z,14.31
2017-07-24T02:17:05.187Z,14.3
2017-07-24T02:17:18.600Z,14.3
2017-07-24T02:17:32.027Z,14.31
2017-07-24T02:17:45.446Z,14.28
2017-07-24T02:17:58.386Z,14.26
2017-07-24T02:18:11.256Z,14.27
2017-07-24T02:18:24.682Z,14.33
2017-07-24T02:18:37.552Z,14.34
2017-07-24T02:18:50.923Z,14.28
2017-07-24T02:19:04.404Z,14.27
2017-07-24T02:19:17.833Z,14.27
2017-07-24T02:19:30.778Z,14.27
2017-07-24T02:19:44.197Z,14.28
2017-07-24T02:19:56.554Z,14.23
2017-07-24T02:20:09.453Z,14.23
2017-07-24T02:20:22.856Z,14.27
2017-07-24T02:20:36.314Z,14.3
2017-07-24T02:20:49.736Z,14.28
2017-07-24T02:21:02.640Z,14.27
2017-07-24T02:21:15.543Z,14.26
2017-07-24T02:21:28.943Z,14.23
2017-07-24T02:21:43.163Z,14.28
2017-07-24T02:21:55.539Z,14.28
2017-07-24T02:22:08.971Z,14.28
2017-07-24T02:22:22.426Z,14.21
2017-07-24T02:22:35.888Z,14.26
2017-07-24T02:22:48.815Z,14.33
2017-07-24T02:23:01.232Z,14.31
2017-07-24T02:23:14.712Z,14.26
2017-07-24T02:23:28.127Z,14.26
2017-07-24T02:23:41.471Z,14.26
2017-07-24T02:23:54.405Z,14.26
2017-07-24T02:24:07.869Z,14.28
2017-07-24T02:24:20.690Z,14.31
2017-07-24T02:24:33.592Z,14.34
2017-07-24T02:24:47.043Z,14.36
2017-07-24T02:24:59.898Z,14.3
2017-07-24T02:25:12.736Z,14.24
2017-07-24T02:25:26.271Z,14.26
2017-07-24T02:25:39.699Z,14.31
2017-07-24T02:25:53.089Z,14.26
2017-07-24T02:26:06.569Z,14.27
2017-07-24T02:26:19.977Z,14.23
2017-07-24T02:26:33.690Z,14.27
2017-07-24T02:26:47.172Z,14.27
2017-07-24T02:27:00.187Z,14.26
2017-07-24T02:27:13.682Z,14.21
2017-07-24T02:27:27.136Z,14.24
2017-07-24T02:27:40.613Z,14.26
2017-07-24T02:27:53.600Z,14.28
2017-07-24T02:28:06.441Z,14.27
2017-07-24T02:28:19.873Z,14.27
2017-07-24T02:28:33.309Z,14.26
2017-07-24T02:28:46.751Z,14.26
2017-07-24T02:29:00.178Z,14.31
2017-07-24T02:29:13.547Z,14.21
2017-07-24T02:29:26.913Z,14.28
2017-07-24T02:29:40.365Z,14.28
2017-07-24T02:29:53.241Z,14.23
2017-07-24T02:30:05.110Z,14.2
2017-07-24T02:30:18.552Z,14.24
2017-07-24T02:30:31.976Z,14.19
2017-07-24T02:30:44.380Z,14.19
2017-07-24T02:30:57.760Z,14.15
2017-07-24T02:31:10.658Z,14.24
2017-07-24T02:31:22.530Z,14.13
2017-07-24T02:31:36.154Z,14.15
2017-07-24T02:31:49.061Z,14.15
2017-07-24T02:32:02.437Z,14.09
2017-07-24T02:32:15.904Z,14.15
2017-07-24T02:32:29.426Z,14.2
2017-07-24T02:32:42.844Z,14.13
2017-07-24T02:32:56.275Z,14.13
2017-07-24T02:33:09.209Z,14.09
2017-07-24T02:33:22.592Z,14.16
2017-07-24T02:33:36.064Z,14.12
2017-07-24T02:33:49.508Z,14.12
2017-07-24T02:34:02.978Z,14.09
2017-07-24T02:34:16.428Z,14.15
2017-07-24T02:34:29.892Z,14.15
2017-07-24T02:34:42.798Z,14.15
2017-07-24T02:34:56.209Z,14.2
2017-07-24T02:35:09.073Z,14.15
2017-07-24T02:35:22.528Z,14.13
2017-07-24T02:35:35.911Z,14.19
2017-07-24T02:35:49.355Z,14.16
2017-07-24T02:36:02.790Z,14.16
2017-07-24T02:36:15.718Z,14.12
2017-07-24T02:36:29.167Z,14.13
2017-07-24T02:36:42.802Z,14.16
2017-07-24T02:36:56.258Z,14.06
2017-07-24T02:37:09.127Z,14.06
2017-07-24T02:37:22.538Z,14.01
2017-07-24T02:37:35.951Z,14.01
2017-07-24T02:37:49.410Z,13.97
2017-07-24T02:38:02.852Z,14.05
2017-07-24T02:38:15.758Z,14.01
2017-07-24T02:38:29.189Z,14.01
2017-07-24T02:38:42.598Z,13.97
2017-07-24T02:38:56.015Z,13.97
2017-07-24T02:39:09.451Z,14.08
2017-07-24T02:39:22.921Z,13.91
2017-07-24T02:39:36.343Z,14.05
2017-07-24T02:39:49.313Z,13.91
2017-07-24T02:40:02.766Z,14.01
2017-07-24T02:40:16.272Z,14.11
2017-07-24T02:40:29.726Z,14.02
2017-07-24T02:40:43.203Z,13.97
2017-07-24T02:40:56.632Z,14.01
2017-07-24T02:41:09.593Z,13.99
2017-07-24T02:41:21.954Z,14.01
2017-07-24T02:41:35.428Z,14.08
2017-07-24T02:41:48.299Z,13.99
2017-07-24T02:42:01.752Z,13.97
2017-07-24T02:42:15.195Z,14.01
2017-07-24T02:42:28.616Z,13.99
2017-07-24T02:42:42.124Z,14.05
2017-07-24T02:42:55.582Z,14.05
2017-07-24T02:43:08.490Z,14.06
2017-07-24T02:43:21.924Z,13.94
2017-07-24T02:43:35.314Z,13.97
2017-07-24T02:43:48.180Z,13.97
2017-07-24T02:44:01.187Z,14.05
2017-07-24T02:44:14.210Z,14.06
2017-07-24T02:44:27.632Z,14.05
2017-07-24T02:44:41.070Z,14.05
2017-07-24T02:44:54.473Z,13.93
2017-07-24T02:45:07.415Z,13.97
2017-07-24T02:45:20.824Z,13.99
2017-07-24T02:45:33.682Z,13.93
2017-07-24T02:45:47.093Z,13.88
2017-07-24T02:46:00.592Z,13.97
2017-07-24T02:46:13.569Z,13.99
2017-07-24T02:46:27.039Z,13.94
2017-07-24T02:46:40.495Z,13.93
2017-07-24T02:46:53.944Z,13.99
2017-07-24T02:47:06.833Z,13.83
2017-07-24T02:47:20.228Z,13.9
2017-07-24T02:47:33.591Z,13.87
2017-07-24T02:47:47.003Z,13.94
2017-07-24T02:48:00.460Z,13.87
2017-07-24T02:48:13.906Z,13.91
2017-07-24T02:48:26.313Z,13.91
2017-07-24T02:48:39.819Z,13.79
2017-07-24T02:48:52.761Z,13.91
2017-07-24T02:49:06.159Z,13.9
2017-07-24T02:49:19.598Z,13.87
2017-07-24T02:49:32.495Z,13.83
2017-07-24T02:49:45.885Z,13.9
2017-07-24T02:49:58.728Z,13.88
2017-07-24T02:50:12.139Z,13.83
2017-07-24T02:50:25.570Z,13.84
2017-07-24T02:50:38.426Z,13.88
2017-07-24T02:50:51.918Z,13.83
2017-07-24T02:51:04.839Z,13.88
2017-07-24T02:51:18.252Z,13.86